createdAt,value
2023-04-02T10:42:24.070Z,25.30
2023-04-02T11:04:55.985Z,23.80
2023-04-02T11:08:08.049Z,23.70
2023-04-02T11:35:07.245Z,25.50
2023-04-02T11:38:53.017Z,24.20
2023-04-02T11:42:25.184Z,24.40
2023-04-02T11:45:58.614Z,24.60
2023-04-02T11:59:07.512Z,11.60
2023-04-02T12:02:25.792Z,10.70
2023-04-02T12:05:38.541Z,8.80
2023-04-02T12:08:58.263Z,8.20
2023-04-02T12:12:18.594Z,9.20
2023-04-02T12:15:49.704Z,7.90
2023-04-02T12:18:55.157Z,8.10
2023-04-02T12:22:00.720Z,8.10
2023-04-02T12:28:19.678Z,7.50
2023-04-02T12:31:28.055Z,8.00
2023-04-02T12:40:41.766Z,8.40
2023-04-02T12:49:38.108Z,8.40
2023-04-02T12:52:47.794Z,8.40
2023-04-02T12:55:54.181Z,8.60
2023-04-02T13:02:19.207Z,8.40
2023-04-02T13:05:43.213Z,8.50
2023-04-02T13:08:47.241Z,8.10
2023-04-02T13:11:51.273Z,8.50
2023-04-02T13:14:57.985Z,8.30
2023-04-02T13:18:18.674Z,8.70
2023-04-02T13:21:28.907Z,8.30
2023-04-02T13:24:34.904Z,8.20
2023-04-02T13:27:39.217Z,8.90
2023-04-02T13:30:43.497Z,9.20
2023-04-02T13:33:47.465Z,8.20
2023-04-02T13:36:53.121Z,8.40
2023-04-02T13:39:56.935Z,8.50
2023-04-02T13:46:08.478Z,8.30
2023-04-02T13:49:12.443Z,8.20
2023-04-02T15:47:33.943Z,8.10
2023-04-02T15:51:00.479Z,7.60
2023-04-02T16:00:42.174Z,7.60
2023-04-02T16:13:45.724Z,7.40
2023-04-02T16:16:52.917Z,7.60
2023-04-02T16:26:54.585Z,7.60
2023-04-02T16:30:35.172Z,7.50
2023-04-02T16:33:57.374Z,7.30
2023-04-02T16:37:12.443Z,7.20
2023-04-02T16:40:33.940Z,7.40
2023-04-02T16:43:50.711Z,7.00
2023-04-02T16:57:05.457Z,7.20
2023-04-02T17:00:22.727Z,7.00
